createdAt,value
2019-05-02T00:03:04.539Z,79.51
2019-05-02T00:06:15.951Z,79.63
2019-05-02T00:09:30.174Z,79.79
2019-05-02T00:12:44.278Z,79.79
2019-05-02T00:15:58.630Z,80.38
2019-05-02T00:19:13.897Z,81.15
2019-05-02T00:22:28.358Z,81.38
2019-05-02T00:25:41.947Z,81.11
2019-05-02T00:28:55.949Z,80.98
2019-05-02T00:32:09.662Z,81.54
2019-05-02T00:35:23.242Z,81.82
2019-05-02T00:38:38.482Z,81.50
2019-05-02T00:41:52.553Z,81.47
2019-05-02T00:45:06.464Z,81.76
2019-05-02T00:48:42.706Z,82.25
2019-05-02T00:52:00.896Z,82.29
2019-05-02T00:55:12.611Z,82.96
2019-05-02T00:58:27.236Z,82.99
2019-05-02T01:01:52.334Z,82.43
2019-05-02T01:05:06.235Z,83.10
2019-05-02T01:08:19.750Z,82.79
2019-05-02T01:11:33.369Z,83.04
2019-05-02T01:14:46.883Z,83.27
2019-05-02T01:18:01.080Z,83.41
2019-05-02T01:24:45.750Z,83.60
2019-05-02T01:28:17.966Z,83.06
2019-05-02T01:31:38.707Z,82.91
2019-05-02T01:35:00.541Z,83.42
2019-05-02T01:38:33.681Z,83.66
2019-05-02T01:41:47.703Z,83.21
2019-05-02T01:45:01.286Z,82.91
2019-05-02T01:48:14.897Z,83.26
2019-05-02T01:51:28.476Z,83.82
2019-05-02T01:54:45.856Z,83.70
2019-05-02T01:57:57.401Z,83.95
2019-05-02T02:01:10.918Z,83.67
2019-05-02T02:04:24.396Z,83.35
2019-05-02T02:07:37.906Z,83.43
2019-05-02T02:10:56.239Z,83.45
2019-05-02T02:14:12.182Z,83.30
2019-05-02T02:17:23.010Z,83.22
2019-05-02T02:20:49.060Z,83.58
2019-05-02T02:24:07.821Z,83.61
2019-05-02T02:27:24.601Z,83.82
2019-05-02T02:30:36.936Z,83.79
2019-05-02T02:33:50.815Z,83.79
2019-05-02T02:37:12.164Z,83.96
2019-05-02T02:40:20.089Z,83.93
2019-05-02T02:43:35.009Z,83.56
2019-05-02T02:46:48.909Z,84.11
2019-05-02T02:50:05.358Z,83.99
2019-05-02T02:53:28.998Z,83.83
2019-05-02T02:56:42.858Z,83.57
2019-05-02T03:00:06.752Z,83.35
2019-05-02T03:03:12.230Z,83.17
2019-05-02T03:06:25.938Z,83.65
2019-05-02T03:09:39.554Z,83.58
2019-05-02T03:13:15.068Z,83.57
2019-05-02T03:16:28.417Z,84.17
2019-05-02T03:19:42.026Z,84.46
2019-05-02T03:22:55.717Z,84.35
2019-05-02T03:26:15.006Z,84.74
2019-05-02T03:29:24.955Z,84.59
2019-05-02T03:32:38.564Z,84.77
2019-05-02T03:35:52.169Z,84.74
2019-05-02T03:39:13.492Z,84.47
2019-05-02T03:42:22.188Z,84.40
2019-05-02T03:45:40.071Z,84.69
2019-05-02T03:48:52.049Z,85.07
2019-05-02T03:52:06.208Z,84.83
2019-05-02T03:55:23.742Z,84.83
2019-05-02T03:58:35.731Z,84.96
2019-05-02T04:01:49.666Z,84.65
2019-05-02T04:05:03.890Z,84.59
2019-05-02T04:08:20.778Z,84.87
2019-05-02T04:11:38.976Z,85.10
2019-05-02T04:14:55.303Z,85.30
2019-05-02T04:18:08.367Z,84.94
2019-05-02T04:21:24.520Z,84.84
2019-05-02T04:24:36.602Z,85.26
2019-05-02T04:27:50.196Z,85.24
2019-05-02T04:31:03.796Z,85.15
2019-05-02T04:34:17.905Z,84.84
2019-05-02T04:37:34.384Z,84.65
2019-05-02T04:40:49.581Z,84.73
2019-05-02T04:44:02.998Z,84.50
2019-05-02T04:47:20.876Z,84.23
2019-05-02T04:50:32.597Z,84.32
2019-05-02T04:53:49.558Z,84.06
2019-05-02T04:57:02.710Z,83.81
2019-05-02T05:00:21.061Z,83.67
2019-05-02T05:03:34.822Z,84.04
2019-05-02T05:06:56.210Z,84.27
2019-05-02T05:10:04.246Z,83.98
2019-05-02T05:16:34.393Z,83.52
2019-05-02T05:19:48.742Z,83.65
2019-05-02T05:23:02.464Z,83.08
2019-05-02T05:26:17.520Z,83.11
2019-05-02T05:29:31.331Z,82.77
2019-05-02T05:32:45.123Z,83.36
2019-05-02T05:35:58.630Z,83.35
2019-05-02T05:39:12.138Z,82.94
2019-05-02T05:42:30.109Z,83.26
2019-05-02T05:45:53.486Z,83.47
2019-05-02T05:49:18.404Z,83.57
2019-05-02T05:52:28.450Z,83.85
2019-05-02T05:55:41.974Z,83.82
2019-05-02T05:58:58.967Z,83.09
2019-05-02T06:02:14.574Z,82.76
2019-05-02T06:05:27.647Z,82.68
2019-05-02T06:08:41.693Z,82.38
2019-05-02T06:11:55.635Z,82.69
2019-05-02T06:15:10.728Z,82.57
2019-05-02T06:18:24.319Z,82.18
2019-05-02T06:21:40.071Z,81.59
2019-05-02T06:24:53.300Z,81.46
2019-05-02T06:28:07.024Z,79.84
2019-05-02T06:31:20.480Z,79.16
2019-05-02T06:34:38.747Z,78.62
2019-05-02T06:37:50.335Z,79.05
2019-05-02T06:41:05.137Z,78.68
2019-05-02T06:44:23.717Z,78.12
2019-05-02T06:47:35.934Z,77.78
2019-05-02T06:50:50.024Z,77.00
2019-05-02T06:54:04.056Z,75.97
2019-05-02T06:57:19.098Z,75.00
2019-05-02T07:00:38.439Z,74.29
2019-05-02T07:03:48.779Z,73.51
2019-05-02T07:07:02.857Z,72.92
2019-05-02T07:10:20.140Z,71.14
2019-05-02T07:13:36.190Z,70.07
2019-05-02T07:17:05.674Z,68.21
2019-05-02T07:20:19.288Z,67.93
2019-05-02T07:23:32.806Z,67.33
2019-05-02T07:26:47.005Z,67.74
2019-05-02T07:30:00.954Z,66.98
2019-05-02T07:33:14.449Z,66.01
2019-05-02T07:36:31.188Z,65.78
2019-05-02T07:39:43.954Z,65.40
2019-05-02T07:42:57.538Z,65.23
2019-05-02T07:46:11.237Z,65.15
2019-05-02T07:49:26.538Z,65.02
2019-05-02T07:52:41.228Z,64.23
2019-05-02T07:55:54.937Z,63.99
2019-05-02T07:59:09.295Z,63.40
2019-05-02T08:02:25.035Z,62.65
2019-05-02T08:05:38.189Z,62.65
2019-05-02T08:08:51.769Z,61.09
2019-05-02T08:12:05.461Z,62.96
2019-05-02T08:15:19.149Z,60.14
2019-05-02T08:18:32.733Z,60.43
2019-05-02T08:21:46.230Z,56.97
2019-05-02T08:25:00.041Z,59.31
2019-05-02T08:28:21.626Z,57.35
2019-05-02T08:31:35.118Z,56.72
2019-05-02T08:34:51.653Z,57.78
2019-05-02T08:38:04.582Z,56.77
2019-05-02T08:41:19.924Z,54.81
2019-05-02T08:44:34.076Z,52.25
2019-05-02T08:47:47.586Z,49.71
2019-05-02T08:51:01.194Z,50.30
2019-05-02T08:54:15.052Z,50.25
2019-05-02T08:57:30.080Z,48.68
2019-05-02T09:00:47.002Z,50.40
2019-05-02T09:03:59.899Z,51.82
2019-05-02T09:07:13.452Z,52.14
2019-05-02T09:10:27.148Z,50.21
2019-05-02T09:13:42.166Z,50.48
2019-05-02T09:17:00.296Z,49.73
2019-05-02T09:20:18.744Z,45.71
2019-05-02T09:23:27.665Z,46.76
2019-05-02T09:26:43.717Z,47.66
2019-05-02T09:29:57.245Z,45.48
2019-05-02T09:33:11.755Z,45.62
2019-05-02T09:36:25.405Z,44.56
2019-05-02T09:39:38.999Z,45.55
2019-05-02T09:42:57.479Z,45.95
2019-05-02T09:46:12.798Z,45.22
2019-05-02T09:49:23.850Z,46.22
2019-05-02T09:52:39.542Z,46.28
2019-05-02T09:55:57.307Z,45.92
2019-05-02T09:59:24.308Z,44.88
2019-05-02T10:02:25.313Z,44.90
2019-05-02T10:05:39.031Z,45.53
2019-05-02T10:08:53.067Z,44.00
2019-05-02T10:12:07.094Z,43.15
2019-05-02T10:15:22.211Z,44.69
2019-05-02T10:18:35.883Z,42.49
2019-05-02T10:21:52.458Z,44.21
2019-05-02T10:25:06.133Z,44.39
2019-05-02T10:28:19.892Z,44.63
2019-05-02T10:31:37.669Z,44.94
2019-05-02T10:34:53.133Z,43.53
2019-05-02T10:38:04.373Z,44.72
2019-05-02T10:41:17.979Z,44.86
2019-05-02T10:44:32.703Z,43.83
2019-05-02T10:47:46.894Z,44.79
2019-05-02T10:51:18.718Z,43.71
2019-05-02T10:54:33.711Z,45.17
2019-05-02T10:57:48.884Z,44.15
2019-05-02T11:01:03.847Z,43.46
2019-05-02T11:04:17.532Z,41.74
2019-05-02T11:07:32.649Z,42.64
2019-05-02T11:10:46.822Z,43.57
2019-05-02T11:14:13.633Z,43.12
2019-05-02T11:17:32.445Z,41.41
2019-05-02T11:20:46.138Z,42.32
2019-05-02T11:24:02.185Z,40.71
2019-05-02T11:27:15.293Z,39.68
2019-05-02T11:30:29.031Z,38.72
2019-05-02T11:33:42.680Z,39.08
2019-05-02T11:36:56.494Z,38.88
2019-05-02T11:40:12.581Z,41.58
2019-05-02T11:43:26.046Z,40.01
2019-05-02T11:46:42.906Z,41.14
2019-05-02T11:49:56.002Z,40.85
2019-05-02T11:53:23.293Z,38.29
2019-05-02T11:56:25.250Z,39.35
2019-05-02T11:59:38.776Z,38.74
2019-05-02T12:03:14.776Z,39.09
2019-05-02T12:06:29.239Z,36.08
2019-05-02T12:09:44.328Z,38.47
2019-05-02T12:16:34.645Z,36.84
2019-05-02T12:19:48.386Z,39.83
2019-05-02T12:23:02.188Z,37.97
2019-05-02T12:26:15.778Z,40.48
2019-05-02T12:29:29.567Z,42.23
2019-05-02T12:32:43.383Z,40.72
2019-05-02T12:35:57.670Z,39.38
2019-05-02T12:39:12.645Z,41.62
2019-05-02T12:42:27.025Z,39.75
2019-05-02T12:45:42.119Z,41.38
2019-05-02T12:48:56.060Z,41.36
2019-05-02T12:52:09.604Z,40.41
2019-05-02T12:55:23.253Z,38.82
2019-05-02T12:58:37.047Z,35.42
2019-05-02T13:01:51.806Z,34.65
2019-05-02T13:05:05.748Z,33.42
2019-05-02T13:08:19.312Z,34.88
2019-05-02T13:11:42.152Z,35.69
2019-05-02T13:14:54.047Z,36.88
2019-05-02T13:18:07.784Z,35.71
2019-05-02T13:21:38.704Z,34.83
2019-05-02T13:24:54.140Z,36.52
2019-05-02T13:28:03.643Z,36.86
2019-05-02T13:31:42.811Z,37.76
2019-05-02T13:35:03.195Z,35.91
2019-05-02T13:38:19.581Z,36.58
2019-05-02T13:41:33.118Z,37.79
2019-05-02T13:44:54.073Z,38.58
2019-05-02T13:48:07.782Z,38.15
2019-05-02T13:51:22.279Z,38.56
2019-05-02T13:54:36.812Z,36.53
2019-05-02T13:57:50.425Z,37.84
2019-05-02T14:01:04.404Z,38.21
2019-05-02T14:04:18.130Z,38.93
2019-05-02T14:07:32.665Z,39.02
2019-05-02T14:10:47.903Z,40.45
2019-05-02T14:14:01.948Z,38.99
2019-05-02T14:17:15.857Z,39.88
2019-05-02T14:20:29.602Z,39.87
2019-05-02T14:23:43.337Z,38.82
2019-05-02T14:26:56.983Z,40.33
2019-05-02T14:30:12.206Z,39.41
2019-05-02T14:33:27.717Z,40.49
2019-05-02T14:36:42.347Z,40.10
2019-05-02T14:40:04.243Z,40.06
2019-05-02T14:43:43.006Z,38.22
2019-05-02T14:46:52.363Z,38.72
2019-05-02T14:50:06.407Z,37.19
2019-05-02T14:53:22.152Z,36.83
2019-05-02T14:56:55.515Z,37.16
2019-05-02T15:00:09.557Z,37.31
2019-05-02T15:03:24.575Z,35.80
2019-05-02T15:06:45.469Z,36.10
2019-05-02T15:09:57.134Z,36.35
2019-05-02T15:13:09.933Z,36.22
2019-05-02T15:16:33.392Z,36.24
2019-05-02T15:19:39.360Z,35.50
2019-05-02T15:22:52.873Z,37.55
2019-05-02T15:26:06.613Z,37.97
2019-05-02T15:29:25.088Z,38.30
2019-05-02T15:33:02.948Z,39.51
2019-05-02T15:36:17.057Z,39.79
2019-05-02T15:42:47.086Z,39.76
2019-05-02T15:46:02.011Z,39.56
2019-05-02T15:49:15.637Z,40.07
2019-05-02T15:52:32.621Z,39.15
2019-05-02T15:55:46.336Z,39.96
2019-05-02T15:59:03.417Z,40.58
2019-05-02T16:02:22.823Z,38.69
2019-05-02T16:05:36.553Z,38.82
2019-05-02T16:08:49.359Z,39.57
2019-05-02T16:12:03.546Z,38.61
2019-05-02T16:15:21.467Z,37.92
2019-05-02T16:18:36.019Z,38.41
2019-05-02T16:22:06.268Z,38.71
2019-05-02T16:25:20.036Z,38.37
2019-05-02T16:28:36.950Z,39.48
2019-05-02T16:32:09.924Z,39.76
2019-05-02T16:35:24.568Z,40.20
2019-05-02T16:38:38.062Z,40.76
2019-05-02T16:41:52.958Z,41.35
2019-05-02T16:45:08.198Z,41.64
2019-05-02T16:48:22.209Z,41.65
2019-05-02T16:51:37.631Z,42.60
2019-05-02T16:54:52.647Z,42.78
2019-05-02T16:58:07.373Z,44.29
2019-05-02T17:01:27.189Z,44.39
2019-05-02T17:04:36.899Z,44.60
2019-05-02T17:08:10.778Z,45.20
2019-05-02T17:11:33.648Z,48.19
2019-05-02T17:15:03.611Z,52.32
2019-05-02T17:18:18.242Z,55.53
2019-05-02T17:21:52.447Z,56.65
2019-05-02T17:24:48.220Z,58.65
2019-05-02T17:28:08.278Z,59.71
2019-05-02T17:31:20.424Z,60.93
2019-05-02T17:34:34.995Z,61.25
2019-05-02T17:37:49.104Z,61.72
2019-05-02T17:41:07.703Z,62.91
2019-05-02T17:44:22.109Z,63.96
2019-05-02T17:47:36.208Z,63.76
2019-05-02T17:51:09.371Z,64.71
2019-05-02T17:54:26.256Z,61.79
2019-05-02T17:57:38.506Z,61.05
2019-05-02T18:00:56.916Z,57.93
2019-05-02T18:04:12.660Z,60.28
2019-05-02T18:07:31.897Z,60.92
2019-05-02T18:10:41.886Z,60.46
2019-05-02T18:13:55.546Z,60.79
2019-05-02T18:17:09.246Z,61.15
2019-05-02T18:20:25.281Z,62.02
2019-05-02T18:23:38.464Z,62.37
2019-05-02T18:26:52.063Z,63.93
2019-05-02T18:30:06.791Z,64.31
2019-05-02T18:33:22.541Z,65.60
2019-05-02T18:36:36.336Z,66.68
2019-05-02T18:39:55.261Z,67.39
2019-05-02T18:43:05.836Z,67.46
2019-05-02T18:46:20.014Z,67.92
2019-05-02T18:49:33.834Z,68.77
2019-05-02T18:52:48.098Z,68.80
2019-05-02T18:56:03.641Z,69.47
2019-05-02T18:59:19.746Z,69.94
2019-05-02T19:02:35.683Z,71.27
2019-05-02T19:05:51.509Z,71.22
2019-05-02T19:09:09.058Z,71.08
2019-05-02T19:12:25.996Z,71.06
2019-05-02T19:15:39.516Z,71.05
2019-05-02T19:18:57.278Z,70.88
2019-05-02T19:22:13.361Z,71.07
2019-05-02T19:25:25.095Z,70.49
2019-05-02T19:29:02.502Z,69.97
2019-05-02T19:32:17.057Z,69.53
2019-05-02T19:35:32.794Z,69.63
2019-05-02T19:38:46.994Z,69.10
2019-05-02T19:42:01.787Z,69.17
2019-05-02T19:45:16.896Z,68.46
2019-05-02T19:48:33.025Z,68.37
2019-05-02T19:51:50.552Z,68.49
2019-05-02T19:55:01.951Z,68.81
2019-05-02T19:58:15.642Z,68.38
2019-05-02T20:01:29.660Z,68.75
2019-05-02T20:04:44.330Z,68.52
2019-05-02T20:07:58.047Z,68.53
2019-05-02T20:11:12.615Z,69.35
2019-05-02T20:14:26.278Z,68.91
2019-05-02T20:17:41.665Z,68.52
2019-05-02T20:21:23.492Z,68.47
2019-05-02T20:24:55.265Z,68.13
2019-05-02T20:28:06.944Z,68.69
2019-05-02T20:31:21.696Z,67.51
2019-05-02T20:34:35.667Z,66.15
2019-05-02T20:37:49.161Z,66.19
2019-05-02T20:41:03.094Z,66.67
2019-05-02T20:44:16.774Z,66.35
2019-05-02T20:47:30.457Z,65.68
2019-05-02T20:50:44.051Z,66.21
2019-05-02T20:53:57.641Z,66.11
2019-05-02T20:57:12.020Z,66.25
2019-05-02T21:00:27.849Z,66.79
2019-05-02T21:03:42.714Z,66.91
2019-05-02T21:07:10.602Z,66.89
2019-05-02T21:10:27.830Z,66.82
2019-05-02T21:16:34.044Z,66.97
2019-05-02T21:19:47.566Z,68.45
2019-05-02T21:23:01.990Z,67.82
2019-05-02T21:26:15.650Z,66.42
2019-05-02T21:29:29.271Z,67.85
2019-05-02T21:32:42.953Z,67.51
2019-05-02T21:35:56.530Z,67.04
2019-05-02T21:39:11.878Z,68.02
2019-05-02T21:42:25.713Z,67.61
2019-05-02T21:45:39.450Z,67.40
2019-05-02T21:48:52.925Z,67.48
2019-05-02T21:52:29.188Z,67.38
2019-05-02T21:55:52.071Z,67.33
2019-05-02T21:59:12.232Z,67.67
2019-05-02T22:02:26.336Z,67.67
2019-05-02T22:05:42.279Z,68.23
2019-05-02T22:08:55.832Z,68.78
2019-05-02T22:12:09.544Z,68.46
2019-05-02T22:15:23.051Z,68.23
2019-05-02T22:18:36.546Z,68.34
2019-05-02T22:21:52.265Z,68.79
2019-05-02T22:25:05.958Z,68.47
2019-05-02T22:28:19.556Z,69.97
2019-05-02T22:31:33.278Z,69.50
2019-05-02T22:34:46.757Z,68.91
2019-05-02T22:38:07.814Z,68.91
2019-05-02T22:41:22.138Z,70.02
2019-05-02T22:44:35.792Z,69.72
2019-05-02T22:47:49.274Z,69.49
2019-05-02T22:51:03.214Z,69.72
2019-05-02T22:54:26.675Z,70.19
2019-05-02T22:57:32.586Z,70.60
2019-05-02T23:00:46.276Z,70.20
2019-05-02T23:04:01.950Z,69.83
2019-05-02T23:07:15.780Z,70.49
2019-05-02T23:10:29.463Z,71.00
2019-05-02T23:13:43.049Z,71.06
2019-05-02T23:16:56.746Z,70.86
2019-05-02T23:20:12.674Z,70.96
2019-05-02T23:23:26.142Z,70.71
2019-05-02T23:27:05.380Z,71.04
2019-05-02T23:30:22.561Z,70.87
2019-05-02T23:33:54.512Z,71.00
2019-05-02T23:37:08.204Z,71.25
2019-05-02T23:40:22.166Z,71.36
2019-05-02T23:43:35.985Z,71.66
2019-05-02T23:46:51.505Z,71.57
2019-05-02T23:50:05.366Z,71.62
2019-05-02T23:53:19.192Z,71.90
2019-05-02T23:56:32.689Z,71.48
2019-05-02T23:59:46.152Z,71.64
